Time;durP1;ratioP1;P1;durP2;ratioP2;P2;SDS_P1;SDS_P2;PMS_P1;PMS_P2;Temp;Humidity;BMP_temperature;BMP_pressure;BME280_temperature;BME280_humidity;BME280_pressure;Samples;Min_cycle;Max_cycle;Signal;HPM_P1;HPM_P2
2023/06/18 00:00:38;;;;;;;6.40;3.97;;;;;;;;;;5148242;27;20057;-74
2023/06/18 00:03:08;;;;;;;5.75;4.35;;;;;;;;;;5147206;27;20864;-74
2023/06/18 00:05:38;;;;;;;10.38;4.45;;;;;;;;;;5127889;27;20054;-74
2023/06/18 00:08:09;;;;;;;6.55;4.38;;;;;;;;;;5129070;27;20050;-74
2023/06/18 00:10:41;;;;;;;7.45;5.55;;;;;;;;;;5147358;27;20408;-74
2023/06/18 00:13:12;;;;;;;12.48;5.18;;;;;;;;;;5147646;27;20046;-74
2023/06/18 00:15:42;;;;;;;9.60;5.75;;;;;;;;;;5146714;27;20386;-74
2023/06/18 00:18:14;;;;;;;7.60;3.97;;;;;;;;;;5146873;27;20051;-75
2023/06/18 00:20:46;;;;;;;7.07;4.15;;;;;;;;;;5147012;27;20413;-74
2023/06/18 00:23:17;;;;;;;4.65;3.08;;;;;;;;;;5146615;27;20035;-74
2023/06/18 00:25:47;;;;;;;6.45;3.25;;;;;;;;;;5146558;27;20047;-74
2023/06/18 00:28:17;;;;;;;;;;;;;;;;;;5136121;27;20061;-74
2023/06/18 00:30:47;;;;;;;6.57;3.47;;;;;;;;;;5147173;27;19930;-75
2023/06/18 00:33:19;;;;;;;6.00;3.97;;;;;;;;;;5138623;27;20053;-74
2023/06/18 00:35:56;;;;;;;7.72;4.60;;;;;;;;;;5147114;27;20515;-74
2023/06/18 00:38:28;;;;;;;8.68;5.13;;;;;;;;;;5147343;27;20532;-75
2023/06/18 00:40:58;;;;;;;11.95;5.75;;;;;;;;;;5146667;27;20051;-75
2023/06/18 00:43:29;;;;;;;12.82;6.30;;;;;;;;;;5138160;27;20046;-74
2023/06/18 00:46:00;;;;;;;6.60;4.88;;;;;;;;;;5134989;27;20531;-74
2023/06/18 00:48:35;;;;;;;7.65;4.70;;;;;;;;;;5137819;27;20046;-75
2023/06/18 00:51:07;;;;;;;9.00;4.95;;;;;;;;;;5146710;27;20038;-74
2023/06/18 00:53:38;;;;;;;8.52;5.80;;;;;;;;;;5146332;27;20412;-74
2023/06/18 00:56:09;;;;;;;8.02;5.45;;;;;;;;;;5142022;27;20057;-74
2023/06/18 00:58:40;;;;;;;9.20;4.70;;;;;;;;;;5145682;27;20045;-74
2023/06/18 01:01:10;;;;;;;7.65;4.88;;;;;;;;;;5144913;27;20043;-74
2023/06/18 01:03:47;;;;;;;9.27;4.38;;;;;;;;;;5146348;27;20062;-75
2023/06/18 01:06:19;;;;;;;6.10;4.10;;;;;;;;;;5146464;27;20050;-74
2023/06/18 01:08:54;;;;;;;7.25;4.38;;;;;;;;;;5145683;27;21102;-74
2023/06/18 01:11:25;;;;;;;9.32;5.13;;;;;;;;;;5145930;27;20039;-75
2023/06/18 01:13:57;;;;;;;8.85;5.00;;;;;;;;;;5136706;27;20051;-74
2023/06/18 01:16:30;;;;;;;11.88;5.75;;;;;;;;;;5135725;27;20517;-75
2023/06/18 01:19:01;;;;;;;9.32;5.38;;;;;;;;;;5146169;27;20424;-74
2023/06/18 01:21:36;;;;;;;14.63;4.57;;;;;;;;;;5135468;27;20038;-75
2023/06/18 01:24:16;;;;;;;9.50;3.55;;;;;;;;;;5135341;27;20046;-74
2023/06/18 01:26:47;;;;;;;4.93;3.63;;;;;;;;;;5146340;27;20043;-74
2023/06/18 01:29:18;;;;;;;7.57;4.65;;;;;;;;;;5145883;27;20395;-74
2023/06/18 01:31:47;;;;;;;;;;;;;;;;;;5146077;27;20489;-74
2023/06/18 01:34:18;;;;;;;9.02;4.97;;;;;;;;;;5135476;27;19930;-74
2023/06/18 01:37:20;;;;;;;11.13;4.40;;;;;;;;;;5145872;27;20062;-75
2023/06/18 01:40:01;;;;;;;8.93;4.93;;;;;;;;;;5145515;27;20034;-74
2023/06/18 01:42:37;;;;;;;7.60;4.53;;;;;;;;;;5135868;27;20058;-74
2023/06/18 01:45:15;;;;;;;9.30;4.57;;;;;;;;;;5145761;27;20100;-73
2023/06/18 01:47:46;;;;;;;8.55;5.75;;;;;;;;;;5136151;27;21324;-74
2023/06/18 01:50:19;;;;;;;7.53;4.13;;;;;;;;;;5146546;27;20049;-74
2023/06/18 01:52:50;;;;;;;6.47;4.20;;;;;;;;;;5145340;27;20042;-75
2023/06/18 01:55:22;;;;;;;7.88;4.45;;;;;;;;;;5145594;27;20038;-74
2023/06/18 01:57:58;;;;;;;8.05;4.13;;;;;;;;;;5145642;27;20050;-74
2023/06/18 02:00:29;;;;;;;9.60;4.57;;;;;;;;;;5118038;27;20434;-75
2023/06/18 02:03:00;;;;;;;5.68;3.92;;;;;;;;;;5146566;27;20456;-75
2023/06/18 02:05:31;;;;;;;6.05;3.65;;;;;;;;;;5147874;27;20043;-75
2023/06/18 02:08:02;;;;;;;6.85;4.03;;;;;;;;;;5145615;27;20038;-74
2023/06/18 02:10:33;;;;;;;4.95;3.08;;;;;;;;;;5145685;27;20050;-74
2023/06/18 02:13:03;;;;;;;6.93;3.38;;;;;;;;;;5149624;27;20049;-75
2023/06/18 02:15:33;;;;;;;;;;;;;;;;;;5150392;27;20047;-74
2023/06/18 02:18:03;;;;;;;4.30;2.80;;;;;;;;;;5150827;27;20377;-75
2023/06/18 02:20:36;;;;;;;6.47;3.40;;;;;;;;;;5146598;27;20057;-75
2023/06/18 02:23:06;;;;;;;7.78;4.75;;;;;;;;;;5148937;27;20386;-75
2023/06/18 02:25:37;;;;;;;8.20;4.38;;;;;;;;;;5149055;27;20039;-77
2023/06/18 02:28:07;;;;;;;;;;;;;;;;;;5148714;27;20047;-74
2023/06/18 02:30:40;;;;;;;6.45;3.50;;;;;;;;;;5148119;27;19926;-75
2023/06/18 02:33:11;;;;;;;5.65;3.42;;;;;;;;;;5149251;27;20516;-75
2023/06/18 02:35:42;;;;;;;5.95;3.80;;;;;;;;;;5147054;27;20526;-75
2023/06/18 02:38:11;;;;;;;5.35;3.80;;;;;;;;;;5149354;27;20500;-74
2023/06/18 02:40:42;;;;;;;6.85;3.92;;;;;;;;;;5147897;27;20535;-75
2023/06/18 02:43:13;;;;;;;8.23;4.40;;;;;;;;;;5147856;27;20408;-74
2023/06/18 02:45:44;;;;;;;6.20;4.45;;;;;;;;;;5148713;27;20061;-74
2023/06/18 02:48:15;;;;;;;7.63;3.67;;;;;;;;;;5148234;27;20062;-77
2023/06/18 02:50:45;;;;;;;5.53;3.72;;;;;;;;;;5149062;27;20038;-74
2023/06/18 02:53:17;;;;;;;6.90;3.95;;;;;;;;;;5147678;27;20042;-75
2023/06/18 02:55:48;;;;;;;5.72;3.53;;;;;;;;;;5147890;27;20550;-76
2023/06/18 02:58:29;;;;;;;5.47;3.88;;;;;;;;;;5149627;27;20034;-74
2023/06/18 03:01:03;;;;;;;6.90;4.18;;;;;;;;;;5147649;27;20535;-75
2023/06/18 03:03:39;;;;;;;7.35;3.95;;;;;;;;;;5149713;27;20079;-75
2023/06/18 03:06:10;;;;;;;6.80;3.92;;;;;;;;;;5147595;27;20050;-75
2023/06/18 03:08:42;;;;;;;8.13;3.53;;;;;;;;;;5147966;27;20050;-75
2023/06/18 03:11:12;;;;;;;4.90;3.15;;;;;;;;;;5147490;27;20061;-75
2023/06/18 03:13:46;;;;;;;6.57;3.00;;;;;;;;;;5147180;27;20055;-75
2023/06/18 03:16:17;;;;;;;5.20;3.40;;;;;;;;;;5147364;27;20039;-74
2023/06/18 03:18:50;;;;;;;6.18;2.95;;;;;;;;;;5146777;27;20051;-74
2023/06/18 03:21:20;;;;;;;5.43;3.30;;;;;;;;;;5147263;27;20043;-74
2023/06/18 03:23:54;;;;;;;6.38;3.22;;;;;;;;;;5146621;27;20069;-74
2023/06/18 03:26:25;;;;;;;5.22;3.67;;;;;;;;;;5148979;27;20043;-75
2023/06/18 03:28:55;;;;;;;5.78;3.58;;;;;;;;;;5149088;27;20043;-74
2023/06/18 03:31:26;;;;;;;4.97;3.97;;;;;;;;;;5147201;27;20420;-75
2023/06/18 03:34:04;;;;;;;6.15;4.07;;;;;;;;;;5146809;27;20831;-74
2023/06/18 03:36:41;;;;;;;5.70;3.53;;;;;;;;;;5146650;27;20069;-75
2023/06/18 03:39:11;;;;;;;5.38;3.63;;;;;;;;;;5146912;27;20047;-74
2023/06/18 03:41:41;;;;;;;7.85;3.33;;;;;;;;;;5147612;27;20051;-74
2023/06/18 03:44:13;;;;;;;7.68;3.75;;;;;;;;;;5148092;27;20050;-74
2023/06/18 03:46:44;;;;;;;9.60;3.42;;;;;;;;;;5149007;27;20046;-75
2023/06/18 03:49:15;;;;;;;4.32;3.13;;;;;;;;;;5147687;27;20051;-74
2023/06/18 03:51:45;;;;;;;5.43;3.88;;;;;;;;;;5146727;27;20421;-74
2023/06/18 03:54:16;;;;;;;7.32;3.78;;;;;;;;;;5146841;27;20061;-74
2023/06/18 03:56:48;;;;;;;6.25;3.25;;;;;;;;;;5146700;27;20050;-75
2023/06/18 03:59:18;;;;;;;7.55;3.90;;;;;;;;;;5149086;27;20042;-74
2023/06/18 04:01:48;;;;;;;6.63;3.42;;;;;;;;;;5146375;27;20066;-74
2023/06/18 04:04:19;;;;;;;5.90;3.53;;;;;;;;;;5148798;27;20390;-75
2023/06/18 04:06:48;;;;;;;;;;;;;;;;;;5149305;27;20050;-75
2023/06/18 04:09:19;;;;;;;6.07;2.83;;;;;;;;;;5145813;27;20025;-74
2023/06/18 04:11:50;;;;;;;5.13;2.83;;;;;;;;;;5148297;27;20516;-74
2023/06/18 04:14:20;;;;;;;5.95;3.17;;;;;;;;;;5146333;27;20051;-74
2023/06/18 04:16:51;;;;;;;5.93;2.85;;;;;;;;;;5145732;27;20046;-74
2023/06/18 04:19:23;;;;;;;8.02;2.83;;;;;;;;;;5148168;27;20050;-74
2023/06/18 04:21:54;;;;;;;3.85;2.58;;;;;;;;;;5146460;27;20051;-74
2023/06/18 04:24:25;;;;;;;6.55;3.22;;;;;;;;;;5146224;27;20051;-74
2023/06/18 04:26:55;;;;;;;;;;;;;;;;;;5130243;27;20084;-74
2023/06/18 04:29:27;;;;;;;5.35;2.72;;;;;;;;;;5146819;27;19919;-75
2023/06/18 04:31:59;;;;;;;5.55;3.05;;;;;;;;;;5146111;27;20504;-75
2023/06/18 04:34:29;;;;;;;4.78;3.13;;;;;;;;;;5145696;27;20042;-74
2023/06/18 04:37:00;;;;;;;4.32;2.97;;;;;;;;;;5145953;27;20409;-74
2023/06/18 04:39:32;;;;;;;7.57;2.80;;;;;;;;;;5145282;27;20061;-75
2023/06/18 04:42:04;;;;;;;4.95;2.78;;;;;;;;;;5145597;27;20059;-74
2023/06/18 04:44:34;;;;;;;6.18;2.78;;;;;;;;;;5145563;27;20042;-74
2023/06/18 04:47:06;;;;;;;5.72;2.88;;;;;;;;;;5145896;27;20054;-73
2023/06/18 04:49:37;;;;;;;4.82;2.55;;;;;;;;;;5145108;27;20054;-74
2023/06/18 04:52:10;;;;;;;4.63;2.95;;;;;;;;;;5145859;27;20054;-74
2023/06/18 04:54:44;;;;;;;5.70;3.20;;;;;;;;;;5145716;27;20050;-74
2023/06/18 04:57:16;;;;;;;7.05;3.40;;;;;;;;;;5145361;27;20427;-75
2023/06/18 04:59:47;;;;;;;7.03;3.22;;;;;;;;;;5145482;27;20520;-74
2023/06/18 05:02:18;;;;;;;5.78;3.08;;;;;;;;;;5145559;27;20058;-75
2023/06/18 05:04:49;;;;;;;4.47;2.72;;;;;;;;;;5145172;27;20058;-75
2023/06/18 05:07:20;;;;;;;5.60;2.67;;;;;;;;;;5145726;27;20135;-74
2023/06/18 05:09:52;;;;;;;5.70;2.47;;;;;;;;;;5147304;27;20034;-75
2023/06/18 05:12:22;;;;;;;4.57;2.67;;;;;;;;;;5145491;27;20051;-74
2023/06/18 05:14:53;;;;;;;4.45;2.60;;;;;;;;;;5144989;27;20054;-74
2023/06/18 05:17:24;;;;;;;3.45;2.47;;;;;;;;;;5145811;27;20054;-74
2023/06/18 05:19:56;;;;;;;5.50;2.78;;;;;;;;;;5145004;27;20055;-74
2023/06/18 05:22:27;;;;;;;7.25;2.85;;;;;;;;;;5145309;27;20047;-74
2023/06/18 05:25:01;;;;;;;9.02;2.88;;;;;;;;;;5144112;27;20517;-74
2023/06/18 05:27:34;;;;;;;3.95;2.78;;;;;;;;;;5145363;27;20062;-74
2023/06/18 05:30:06;;;;;;;4.72;2.92;;;;;;;;;;5144299;27;20053;-74
2023/06/18 05:32:37;;;;;;;7.97;2.95;;;;;;;;;;5144857;27;20054;-74
2023/06/18 05:35:11;;;;;;;5.82;2.70;;;;;;;;;;5144802;27;20050;-74
2023/06/18 05:37:52;;;;;;;5.28;3.45;;;;;;;;;;5145064;27;20396;-75
2023/06/18 05:40:23;;;;;;;4.45;3.35;;;;;;;;;;5144402;27;20519;-74
2023/06/18 05:42:57;;;;;;;3.92;2.80;;;;;;;;;;5144857;27;20092;-75
2023/06/18 05:45:30;;;;;;;3.90;2.83;;;;;;;;;;5143493;27;20448;-75
2023/06/18 05:48:00;;;;;;;4.75;2.65;;;;;;;;;;5144401;27;20059;-74
2023/06/18 05:50:43;;;;;;;4.18;3.05;;;;;;;;;;5145266;27;20449;-74
2023/06/18 05:53:15;;;;;;;3.15;2.30;;;;;;;;;;5146717;27;20043;-74
2023/06/18 05:55:46;;;;;;;4.88;2.67;;;;;;;;;;5145093;27;20047;-74
2023/06/18 05:58:16;;;;;;;7.78;3.00;;;;;;;;;;5144953;27;20043;-74
2023/06/18 06:00:47;;;;;;;4.32;2.67;;;;;;;;;;5145113;27;20055;-74
2023/06/18 06:03:17;;;;;;;4.53;2.45;;;;;;;;;;5145245;27;20054;-75
2023/06/18 06:05:48;;;;;;;6.20;2.88;;;;;;;;;;5146517;27;20046;-75
2023/06/18 06:08:18;;;;;;;3.47;2.30;;;;;;;;;;5144786;27;20051;-74
2023/06/18 06:10:53;;;;;;;4.95;2.42;;;;;;;;;;5143985;27;20547;-74
2023/06/18 06:13:25;;;;;;;7.78;2.60;;;;;;;;;;5144389;27;20054;-74
2023/06/18 06:16:00;;;;;;;4.47;2.20;;;;;;;;;;5144630;27;20047;-74
2023/06/18 06:18:31;;;;;;;4.20;2.75;;;;;;;;;;5144316;27;20417;-74
2023/06/18 06:21:00;;;;;;;3.60;2.03;;;;;;;;;;5144927;27;20055;-74
2023/06/18 06:23:31;;;;;;;3.85;2.33;;;;;;;;;;5146090;27;20042;-75
2023/06/18 06:26:01;;;;;;;5.10;2.20;;;;;;;;;;5146880;27;20507;-74
2023/06/18 06:28:33;;;;;;;3.53;2.03;;;;;;;;;;5144773;27;20047;-74
2023/06/18 06:31:07;;;;;;;4.82;2.65;;;;;;;;;;5144412;27;20393;-74
2023/06/18 06:33:39;;;;;;;3.72;1.77;;;;;;;;;;5144402;27;20054;-75
2023/06/18 06:36:10;;;;;;;2.35;1.75;;;;;;;;;;5143747;27;20584;-74
2023/06/18 06:38:41;;;;;;;3.78;2.00;;;;;;;;;;5146244;27;20047;-74
2023/06/18 06:41:12;;;;;;;4.78;2.05;;;;;;;;;;5144217;27;20136;-76
2023/06/18 06:43:43;;;;;;;3.13;1.92;;;;;;;;;;5128096;27;20074;-75
2023/06/18 06:46:44;;;;;;;8.13;2.38;;;;;;;;;;5140686;27;20062;-74
2023/06/18 06:49:38;;;;;;;3.85;1.80;;;;;;;;;;5145266;27;20042;-75
2023/06/18 06:52:26;;;;;;;5.30;2.33;;;;;;;;;;5144462;27;20428;-74
2023/06/18 06:54:56;;;;;;;3.60;2.15;;;;;;;;;;5143973;27;20047;-74
2023/06/18 06:57:27;;;;;;;4.43;2.35;;;;;;;;;;5143997;27;20050;-74
2023/06/18 06:59:59;;;;;;;3.42;2.20;;;;;;;;;;5147292;27;20051;-75
2023/06/18 07:02:30;;;;;;;3.20;1.92;;;;;;;;;;5147529;27;20521;-74
2023/06/18 07:05:01;;;;;;;3.42;2.30;;;;;;;;;;5148104;27;20418;-75
2023/06/18 07:07:35;;;;;;;6.72;2.20;;;;;;;;;;5149268;27;20043;-74
2023/06/18 07:10:06;;;;;;;3.67;1.70;;;;;;;;;;5149385;27;20061;-74
2023/06/18 07:12:36;;;;;;;4.00;2.17;;;;;;;;;;5149180;27;20502;-74
2023/06/18 07:15:07;;;;;;;7.72;2.25;;;;;;;;;;5149639;27;20054;-74
2023/06/18 07:17:38;;;;;;;4.55;1.90;;;;;;;;;;5149733;27;20059;-75
2023/06/18 07:20:10;;;;;;;4.22;1.92;;;;;;;;;;5149516;27;20047;-75
2023/06/18 07:22:40;;;;;;;2.88;1.88;;;;;;;;;;5149470;27;20038;-75
2023/06/18 07:25:10;;;;;;;3.10;1.75;;;;;;;;;;5149045;27;20051;-74
2023/06/18 07:27:40;;;;;;;2.28;1.83;;;;;;;;;;5148777;27;20390;-74
2023/06/18 07:30:11;;;;;;;;;;;;;;;;;;5147829;27;20050;-74
2023/06/18 07:32:42;;;;;;;3.60;1.70;;;;;;;;;;5149122;27;19930;-74
2023/06/18 07:35:12;;;;;;;2.65;1.63;;;;;;;;;;5148804;27;20049;-75
2023/06/18 07:37:43;;;;;;;2.55;1.48;;;;;;;;;;5149198;27;20050;-74
2023/06/18 07:40:13;;;;;;;;;;;;;;;;;;5149590;27;20050;-74
2023/06/18 07:42:44;;;;;;;2.42;1.48;;;;;;;;;;5148499;27;19930;-74
2023/06/18 07:45:15;;;;;;;3.10;1.80;;;;;;;;;;5146513;27;20065;-74
2023/06/18 07:47:46;;;;;;;3.95;1.88;;;;;;;;;;5146728;27;20066;-74
2023/06/18 07:50:15;;;;;;;;;;;;;;;;;;5149220;27;20066;-75
2023/06/18 07:52:46;;;;;;;3.67;1.55;;;;;;;;;;5147142;27;19930;-75
2023/06/18 07:55:16;;;;;;;3.47;1.90;;;;;;;;;;5148467;27;20050;-74
2023/06/18 07:57:47;;;;;;;4.63;2.00;;;;;;;;;;5148193;27;20034;-74
2023/06/18 08:00:17;;;;;;;3.30;2.17;;;;;;;;;;5148611;27;20042;-74
2023/06/18 08:02:47;;;;;;;3.90;2.10;;;;;;;;;;5148087;27;20043;-75
2023/06/18 08:05:18;;;;;;;3.60;2.35;;;;;;;;;;5148443;27;20732;-74
2023/06/18 08:07:49;;;;;;;3.40;1.95;;;;;;;;;;5148633;27;20120;-74
2023/06/18 08:10:19;;;;;;;5.95;2.28;;;;;;;;;;5147941;27;20090;-74
2023/06/18 08:12:50;;;;;;;3.22;2.05;;;;;;;;;;5148817;27;20047;-75
2023/06/18 08:15:20;;;;;;;3.67;2.30;;;;;;;;;;5147607;27;20131;-74
2023/06/18 08:17:53;;;;;;;2.45;1.63;;;;;;;;;;5147948;27;20054;-74
2023/06/18 08:20:24;;;;;;;3.45;2.50;;;;;;;;;;5146204;27;20636;-75
2023/06/18 08:22:55;;;;;;;3.67;2.05;;;;;;;;;;5147947;27;20051;-75
2023/06/18 08:25:26;;;;;;;3.30;2.35;;;;;;;;;;5148377;27;20049;-74
2023/06/18 08:27:58;;;;;;;4.40;1.83;;;;;;;;;;5147956;27;20053;-74
2023/06/18 08:30:29;;;;;;;3.00;2.13;;;;;;;;;;5147542;27;20046;-74
2023/06/18 08:32:59;;;;;;;2.85;1.77;;;;;;;;;;5146814;27;20050;-74
2023/06/18 08:35:30;;;;;;;3.05;1.95;;;;;;;;;;5147350;27;20050;-74
2023/06/18 08:38:01;;;;;;;3.13;1.85;;;;;;;;;;5147488;27;20039;-74
2023/06/18 08:40:54;;;;;;;3.05;1.52;;;;;;;;;;5147432;27;20038;-73
2023/06/18 08:43:26;;;;;;;5.65;1.88;;;;;;;;;;5147852;27;20428;-74
2023/06/18 08:46:03;;;;;;;4.00;1.67;;;;;;;;;;5147708;27;20489;-74
2023/06/18 08:48:38;;;;;;;2.28;1.60;;;;;;;;;;5146330;27;20066;-75
2023/06/18 08:51:11;;;;;;;3.17;1.98;;;;;;;;;;5147341;27;20385;-74
2023/06/18 08:53:49;;;;;;;2.90;1.77;;;;;;;;;;5148454;27;20404;-74
2023/06/18 08:56:24;;;;;;;3.00;1.88;;;;;;;;;;5147771;27;20508;-74
2023/06/18 08:59:00;;;;;;;3.25;2.10;;;;;;;;;;5147475;27;20413;-74
2023/06/18 09:01:31;;;;;;;2.95;1.60;;;;;;;;;;5147386;27;20046;-75
2023/06/18 09:04:02;;;;;;;2.45;1.65;;;;;;;;;;5144766;27;20050;-74
2023/06/18 09:06:35;;;;;;;3.08;1.52;;;;;;;;;;5147371;27;20047;-74
2023/06/18 09:09:09;;;;;;;3.00;1.88;;;;;;;;;;5145476;27;20054;-75
2023/06/18 09:11:40;;;;;;;2.17;1.58;;;;;;;;;;5145901;27;20051;-75
2023/06/18 09:14:10;;;;;;;3.05;1.55;;;;;;;;;;5147028;27;20042;-74
2023/06/18 09:16:41;;;;;;;8.60;1.80;;;;;;;;;;5146991;27;20051;-74
2023/06/18 09:19:13;;;;;;;5.97;2.10;;;;;;;;;;5147323;27;20042;-74
2023/06/18 09:21:44;;;;;;;2.60;1.33;;;;;;;;;;5146085;27;20054;-74
2023/06/18 09:24:19;;;;;;;3.22;1.60;;;;;;;;;;5145432;27;20047;-75
2023/06/18 09:27:01;;;;;;;5.07;2.05;;;;;;;;;;5144765;27;20509;-74
2023/06/18 09:29:34;;;;;;;2.83;1.75;;;;;;;;;;5146910;27;20046;-74
2023/06/18 09:32:11;;;;;;;2.40;1.50;;;;;;;;;;5146869;27;20039;-76
2023/06/18 09:34:43;;;;;;;3.38;1.60;;;;;;;;;;5146538;27;20039;-74
2023/06/18 09:37:14;;;;;;;4.88;2.10;;;;;;;;;;5147107;27;20395;-75
2023/06/18 09:39:45;;;;;;;3.20;1.90;;;;;;;;;;5146337;27;20039;-74
2023/06/18 09:42:15;;;;;;;3.65;1.75;;;;;;;;;;5146642;27;20390;-75
2023/06/18 09:44:47;;;;;;;4.07;1.60;;;;;;;;;;5145396;27;20046;-74
2023/06/18 09:47:17;;;;;;;2.13;1.48;;;;;;;;;;5146254;27;20047;-75
2023/06/18 09:49:52;;;;;;;2.05;1.60;;;;;;;;;;5144780;27;20059;-74
2023/06/18 09:52:30;;;;;;;4.72;1.92;;;;;;;;;;5145710;27;20042;-75
2023/06/18 09:55:01;;;;;;;7.20;1.95;;;;;;;;;;5144544;27;20051;-74
2023/06/18 09:57:49;;;;;;;3.60;2.03;;;;;;;;;;5146417;27;21003;-74
2023/06/18 10:00:21;;;;;;;2.47;1.85;;;;;;;;;;5146430;27;20047;-74
2023/06/18 10:02:51;;;;;;;4.40;2.30;;;;;;;;;;5146674;27;20350;-74
2023/06/18 10:05:22;;;;;;;2.72;1.65;;;;;;;;;;5146374;27;20092;-74
2023/06/18 10:07:52;;;;;;;6.15;2.50;;;;;;;;;;5145804;27;20055;-75
2023/06/18 10:10:24;;;;;;;2.70;1.63;;;;;;;;;;5147041;27;20062;-74
2023/06/18 10:12:59;;;;;;;3.17;2.00;;;;;;;;;;5146280;27;20046;-74
2023/06/18 10:15:30;;;;;;;9.75;2.20;;;;;;;;;;5144863;27;20398;-75
2023/06/18 10:18:02;;;;;;;2.95;1.80;;;;;;;;;;5146515;27;20050;-74
2023/06/18 10:20:35;;;;;;;3.30;2.60;;;;;;;;;;5146466;27;20109;-74
2023/06/18 10:23:07;;;;;;;3.15;1.85;;;;;;;;;;5146580;27;20077;-75
2023/06/18 10:25:38;;;;;;;3.63;2.20;;;;;;;;;;5144515;27;20050;-75
2023/06/18 10:28:09;;;;;;;3.13;1.90;;;;;;;;;;5145625;27;20055;-74
2023/06/18 10:30:41;;;;;;;2.45;1.88;;;;;;;;;;5146375;27;20050;-74
2023/06/18 10:33:12;;;;;;;3.65;2.05;;;;;;;;;;5149473;27;20688;-74
2023/06/18 10:35:43;;;;;;;3.65;2.25;;;;;;;;;;5150106;27;20408;-75
2023/06/18 10:38:14;;;;;;;3.47;2.00;;;;;;;;;;5150289;27;20055;-75
2023/06/18 10:40:46;;;;;;;3.65;2.15;;;;;;;;;;5150386;27;20046;-74
2023/06/18 10:43:16;;;;;;;3.88;2.20;;;;;;;;;;5149946;27;20492;-75
2023/06/18 10:46:09;;;;;;;3.75;2.50;;;;;;;;;;5149889;27;20043;-75
2023/06/18 10:48:40;;;;;;;4.57;2.65;;;;;;;;;;5149776;27;20981;-75
2023/06/18 10:51:16;;;;;;;3.85;2.20;;;;;;;;;;5150021;27;20053;-74
2023/06/18 10:53:46;;;;;;;3.38;2.10;;;;;;;;;;5149808;27;20043;-76
2023/06/18 10:56:17;;;;;;;7.22;2.40;;;;;;;;;;5148183;27;20049;-74
2023/06/18 10:58:47;;;;;;;4.93;2.03;;;;;;;;;;5149824;27;20065;-74
2023/06/18 11:01:27;;;;;;;3.70;2.40;;;;;;;;;;5149651;27;20043;-75
2023/06/18 11:04:07;;;;;;;5.40;2.60;;;;;;;;;;5149938;27;20046;-74
2023/06/18 11:06:39;;;;;;;4.70;2.22;;;;;;;;;;5148319;27;20050;-74
2023/06/18 11:09:15;;;;;;;4.75;2.80;;;;;;;;;;5149824;27;20050;-74
2023/06/18 11:11:51;;;;;;;3.92;1.90;;;;;;;;;;5149536;27;20034;-74
2023/06/18 11:14:22;;;;;;;4.57;3.00;;;;;;;;;;5149117;27;20404;-75
2023/06/18 11:17:10;;;;;;;7.63;2.53;;;;;;;;;;5149319;27;20038;-74
2023/06/18 11:19:41;;;;;;;4.05;2.72;;;;;;;;;;5149644;27;20046;-75
2023/06/18 11:22:12;;;;;;;3.30;2.25;;;;;;;;;;5149345;27;20034;-75
2023/06/18 11:24:44;;;;;;;3.55;2.17;;;;;;;;;;5149744;27;20042;-74
2023/06/18 11:27:17;;;;;;;4.20;2.55;;;;;;;;;;5147806;27;20039;-75
2023/06/18 11:29:49;;;;;;;4.30;2.88;;;;;;;;;;5149169;27;20046;-74
2023/06/18 11:32:19;;;;;;;5.55;3.22;;;;;;;;;;5149330;27;20061;-75
2023/06/18 11:34:51;;;;;;;5.95;4.13;;;;;;;;;;5148606;27;20046;-75
2023/06/18 11:37:25;;;;;;;6.72;3.53;;;;;;;;;;5148800;27;20043;-75
2023/06/18 11:39:58;;;;;;;16.45;8.75;;;;;;;;;;5148569;27;20050;-75
2023/06/18 11:42:29;;;;;;;6.38;3.60;;;;;;;;;;5148663;27;20051;-74
2023/06/18 11:45:02;;;;;;;7.03;3.92;;;;;;;;;;5148238;27;20493;-75
2023/06/18 11:47:34;;;;;;;4.75;3.08;;;;;;;;;;5148788;27;20420;-75
2023/06/18 11:50:05;;;;;;;8.48;3.25;;;;;;;;;;5148783;27;20103;-75
2023/06/18 11:52:36;;;;;;;4.35;2.22;;;;;;;;;;5147741;27;20058;-77
2023/06/18 11:55:08;;;;;;;4.07;2.10;;;;;;;;;;5148605;27;20047;-76
2023/06/18 11:57:40;;;;;;;7.97;6.13;;;;;;;;;;5148558;27;20059;-75
2023/06/18 12:00:12;;;;;;;2.90;2.13;;;;;;;;;;5148962;27;20587;-75
2023/06/18 12:02:42;;;;;;;3.40;1.98;;;;;;;;;;5147746;27;20058;-75
2023/06/18 12:05:13;;;;;;;3.33;2.15;;;;;;;;;;5146140;27;20043;-75
2023/06/18 12:07:45;;;;;;;6.75;2.05;;;;;;;;;;5148525;27;20047;-75
2023/06/18 12:10:16;;;;;;;7.55;1.83;;;;;;;;;;5148402;27;20046;-75
2023/06/18 12:12:52;;;;;;;3.58;2.05;;;;;;;;;;5148673;27;20050;-78
2023/06/18 12:15:24;;;;;;;3.13;1.75;;;;;;;;;;5146381;27;20062;-75
2023/06/18 12:18:08;;;;;;;2.47;1.73;;;;;;;;;;5147934;27;20035;-75
2023/06/18 12:20:39;;;;;;;1.63;1.27;;;;;;;;;;5147596;27;20047;-76
2023/06/18 12:23:11;;;;;;;3.22;1.83;;;;;;;;;;5147707;27;20051;-75
2023/06/18 12:25:44;;;;;;;4.78;1.63;;;;;;;;;;5148146;27;20539;-75
2023/06/18 12:28:16;;;;;;;4.45;1.63;;;;;;;;;;5148305;27;20043;-75
2023/06/18 12:30:46;;;;;;;2.70;1.83;;;;;;;;;;5146059;27;20062;-76
2023/06/18 12:33:16;;;;;;;2.88;1.73;;;;;;;;;;5148307;27;20046;-75
2023/06/18 12:35:54;;;;;;;2.95;1.88;;;;;;;;;;5147486;27;20039;-75
2023/06/18 12:38:27;;;;;;;4.45;2.00;;;;;;;;;;5146875;27;20050;-74
2023/06/18 12:41:01;;;;;;;2.35;1.73;;;;;;;;;;5145490;27;20046;-75
2023/06/18 12:43:38;;;;;;;3.70;2.55;;;;;;;;;;5147269;27;21157;-75
2023/06/18 12:46:08;;;;;;;4.93;2.15;;;;;;;;;;5146756;27;20046;-75
2023/06/18 12:48:41;;;;;;;5.65;2.55;;;;;;;;;;5147720;27;20054;-77
2023/06/18 12:51:12;;;;;;;4.90;2.10;;;;;;;;;;5146950;27;20077;-75
2023/06/18 12:54:04;;;;;;;4.63;2.47;;;;;;;;;;5144771;27;20527;-73
2023/06/18 12:56:49;;;;;;;3.50;2.13;;;;;;;;;;5126339;27;20057;-75
2023/06/18 12:59:23;;;;;;;3.67;2.03;;;;;;;;;;5147398;27;20046;-73
2023/06/18 13:01:55;;;;;;;3.08;2.20;;;;;;;;;;5145886;27;20050;-76
2023/06/18 13:04:25;;;;;;;3.25;2.22;;;;;;;;;;5147011;27;20050;-76
2023/06/18 13:06:56;;;;;;;7.25;2.58;;;;;;;;;;5147180;27;20046;-74
2023/06/18 13:09:27;;;;;;;8.02;2.65;;;;;;;;;;5147414;27;20046;-75
2023/06/18 13:11:58;;;;;;;6.65;2.78;;;;;;;;;;5146379;27;20034;-74
2023/06/18 13:14:28;;;;;;;6.07;2.63;;;;;;;;;;5147030;27;20382;-74
2023/06/18 13:17:02;;;;;;;6.53;2.50;;;;;;;;;;5147379;27;20525;-75
2023/06/18 13:19:34;;;;;;;3.40;2.60;;;;;;;;;;5147130;27;20638;-74
2023/06/18 13:22:25;;;;;;;3.25;2.30;;;;;;;;;;5146176;27;20504;-74
2023/06/18 13:24:59;;;;;;;6.63;2.60;;;;;;;;;;5147336;27;20050;-73
2023/06/18 13:27:30;;;;;;;6.75;2.83;;;;;;;;;;5147568;27;20046;-73
2023/06/18 13:30:00;;;;;;;5.35;2.55;;;;;;;;;;5147264;27;20046;-73
2023/06/18 13:32:31;;;;;;;3.90;2.85;;;;;;;;;;5146446;27;20417;-77
2023/06/18 13:35:02;;;;;;;5.57;2.80;;;;;;;;;;5146348;27;20049;-73
2023/06/18 13:37:32;;;;;;;7.15;3.85;;;;;;;;;;5146310;27;20043;-73
2023/06/18 13:40:04;;;;;;;6.82;3.55;;;;;;;;;;5146523;27;20050;-74
2023/06/18 13:42:37;;;;;;;4.85;3.35;;;;;;;;;;5147161;27;20465;-74
2023/06/18 13:45:08;;;;;;;5.05;3.00;;;;;;;;;;5146359;27;20049;-74
2023/06/18 13:47:37;;;;;;;5.75;3.58;;;;;;;;;;5128022;27;20062;-78
2023/06/18 13:50:09;;;;;;;7.25;3.20;;;;;;;;;;5146802;27;20406;-73
2023/06/18 13:52:41;;;;;;;6.20;3.45;;;;;;;;;;5145349;27;20058;-74
2023/06/18 13:55:11;;;;;;;5.80;3.55;;;;;;;;;;5124582;27;20538;-74
2023/06/18 13:57:41;;;;;;;5.82;4.28;;;;;;;;;;5144007;27;20420;-72
2023/06/18 14:00:13;;;;;;;11.30;3.88;;;;;;;;;;5144996;27;20101;-79
2023/06/18 14:02:44;;;;;;;5.60;3.92;;;;;;;;;;5145391;27;20035;-74
2023/06/18 14:05:16;;;;;;;5.47;3.75;;;;;;;;;;5146015;27;20484;-73
2023/06/18 14:07:47;;;;;;;8.00;4.05;;;;;;;;;;5149491;27;20397;-75
2023/06/18 14:10:17;;;;;;;7.25;4.78;;;;;;;;;;5150247;27;20385;-75
2023/06/18 14:12:48;;;;;;;6.22;4.15;;;;;;;;;;5150935;27;20489;-76
2023/06/18 14:15:19;;;;;;;8.48;4.78;;;;;;;;;;5150479;27;20043;-74
2023/06/18 14:17:51;;;;;;;6.97;3.88;;;;;;;;;;5150889;27;20047;-75
2023/06/18 14:20:22;;;;;;;5.07;3.13;;;;;;;;;;5150506;27;20043;-74
2023/06/18 14:22:52;;;;;;;9.82;3.45;;;;;;;;;;5150506;27;20061;-74
2023/06/18 14:25:23;;;;;;;6.63;3.80;;;;;;;;;;5150889;27;20504;-75
2023/06/18 14:27:55;;;;;;;6.45;3.67;;;;;;;;;;5150325;27;20065;-73
2023/06/18 14:30:25;;;;;;;8.77;4.20;;;;;;;;;;5150239;27;20062;-79
2023/06/18 14:32:55;;;;;;;7.07;3.85;;;;;;;;;;5150022;27;20086;-75
2023/06/18 14:35:26;;;;;;;5.70;2.88;;;;;;;;;;5150682;27;20046;-77
2023/06/18 14:37:57;;;;;;;6.22;2.95;;;;;;;;;;5150320;27;20076;-76
2023/06/18 14:40:28;;;;;;;5.47;3.30;;;;;;;;;;5150147;27;20039;-76
2023/06/18 14:42:59;;;;;;;6.60;3.00;;;;;;;;;;5150051;27;20596;-75
2023/06/18 14:45:28;;;;;;;5.75;3.60;;;;;;;;;;5149805;27;20047;-75
2023/06/18 14:47:59;;;;;;;6.10;2.95;;;;;;;;;;5150101;27;20059;-75
2023/06/18 14:50:32;;;;;;;4.03;2.60;;;;;;;;;;5150727;27;20047;-77
2023/06/18 14:53:02;;;;;;;6.28;2.65;;;;;;;;;;5150426;27;20057;-76
2023/06/18 14:55:32;;;;;;;6.43;3.38;;;;;;;;;;5150175;27;20601;-76
2023/06/18 14:58:02;;;;;;;6.63;2.95;;;;;;;;;;5130454;27;20062;-74
2023/06/18 15:00:32;;;;;;;10.25;2.75;;;;;;;;;;5149581;27;20046;-76
2023/06/18 15:03:04;;;;;;;5.22;2.92;;;;;;;;;;5150304;27;21179;-75
2023/06/18 15:05:36;;;;;;;11.63;4.40;;;;;;;;;;5149796;27;20397;-75
2023/06/18 15:08:08;;;;;;;5.05;3.10;;;;;;;;;;5150269;27;20046;-74
2023/06/18 15:10:37;;;;;;;5.43;3.33;;;;;;;;;;5131302;27;20046;-78
2023/06/18 15:13:09;;;;;;;4.82;2.70;;;;;;;;;;5149735;27;20049;-79
2023/06/18 15:15:41;;;;;;;4.22;2.55;;;;;;;;;;5149499;27;20050;-75